Time;durP1;ratioP1;P1;durP2;ratioP2;P2;SDS_P1;SDS_P2;PMS_P1;PMS_P2;Temp;Humidity;BMP_temperature;BMP_pressure;BME280_temperature;BME280_humidity;BME280_pressure;Samples;Min_cycle;Max_cycle;Signal;HPM_P1;HPM_P2
2023/06/09 00:01:36;;;;;;;25.20;8.07;;;;;;;;;;5040039;28;20060;-75
2023/06/09 00:04:03;;;;;;;20.42;7.60;;;;;;;;;;5039755;28;20092;-74
2023/06/09 00:06:30;;;;;;;24.45;9.05;;;;;;;;;;5023041;28;20128;-75
2023/06/09 00:08:59;;;;;;;19.70;7.93;;;;;;;;;;5040431;28;20049;-74
2023/06/09 00:11:26;;;;;;;21.08;8.07;;;;;;;;;;5039793;28;20042;-75
2023/06/09 00:13:52;;;;;;;22.65;7.80;;;;;;;;;;5040529;28;20072;-75
2023/06/09 00:16:18;;;;;;;26.13;8.15;;;;;;;;;;5039391;28;20119;-74
2023/06/09 00:18:45;;;;;;;18.65;7.57;;;;;;;;;;5041032;28;20045;-75
2023/06/09 00:21:15;;;;;;;20.00;7.75;;;;;;;;;;5040293;28;20108;-74
2023/06/09 00:23:44;;;;;;;25.05;8.15;;;;;;;;;;5040527;28;20049;-74
2023/06/09 00:26:10;;;;;;;20.80;8.00;;;;;;;;;;5039007;28;20120;-74
2023/06/09 00:28:36;;;;;;;22.17;7.40;;;;;;;;;;5038900;28;20407;-74
2023/06/09 00:31:02;;;;;;;22.13;8.70;;;;;;;;;;5038103;28;20053;-74
2023/06/09 00:33:28;;;;;;;24.77;8.18;;;;;;;;;;5040317;28;20072;-73
2023/06/09 00:35:54;;;;;;;21.55;8.43;;;;;;;;;;5005784;28;20045;-75
2023/06/09 00:38:20;;;;;;;22.65;8.35;;;;;;;;;;5039498;28;20045;-74
2023/06/09 00:40:47;;;;;;;24.58;8.25;;;;;;;;;;5039979;28;20053;-74
2023/06/09 00:43:13;;;;;;;23.75;8.48;;;;;;;;;;5036137;28;20127;-75
2023/06/09 00:45:40;;;;;;;23.65;8.65;;;;;;;;;;5037527;28;20041;-74
2023/06/09 00:48:06;;;;;;;27.58;8.55;;;;;;;;;;5038246;28;20446;-74
2023/06/09 00:50:34;;;;;;;21.75;8.70;;;;;;;;;;5039169;28;20132;-75
2023/06/09 00:53:01;;;;;;;23.30;8.85;;;;;;;;;;5039107;28;20049;-74
2023/06/09 00:55:27;;;;;;;23.25;8.93;;;;;;;;;;5039242;28;20132;-75
2023/06/09 00:57:56;;;;;;;23.05;9.25;;;;;;;;;;5038619;28;20438;-74
2023/06/09 01:00:29;;;;;;;20.38;8.20;;;;;;;;;;5038641;28;20045;-75
2023/06/09 01:03:02;;;;;;;24.98;8.00;;;;;;;;;;5040080;28;20052;-74
2023/06/09 01:05:38;;;;;;;27.90;9.88;;;;;;;;;;5021860;28;20049;-75
2023/06/09 01:08:14;;;;;;;24.73;8.98;;;;;;;;;;5021853;28;20045;-74
2023/06/09 01:11:00;;;;;;;21.45;8.60;;;;;;;;;;5037249;28;21433;-74
2023/06/09 01:13:26;;;;;;;26.35;9.50;;;;;;;;;;5038144;28;20052;-75
2023/06/09 01:15:55;;;;;;;22.63;9.35;;;;;;;;;;5038918;28;20041;-74
2023/06/09 01:18:24;;;;;;;26.45;9.75;;;;;;;;;;5021731;28;20041;-75
2023/06/09 01:21:12;;;;;;;28.00;9.40;;;;;;;;;;5021780;28;20491;-74
2023/06/09 01:24:04;;;;;;;24.60;9.43;;;;;;;;;;5038638;28;20053;-74
2023/06/09 01:26:31;;;;;;;27.33;9.95;;;;;;;;;;5036485;28;20128;-74
2023/06/09 01:28:58;;;;;;;20.10;8.30;;;;;;;;;;5040447;28;20041;-75
2023/06/09 01:31:24;;;;;;;24.42;9.18;;;;;;;;;;5039485;28;20445;-74
2023/06/09 01:33:51;;;;;;;21.33;9.93;;;;;;;;;;5039887;28;20122;-74
2023/06/09 01:36:17;;;;;;;25.95;9.65;;;;;;;;;;5039465;28;20042;-74
2023/06/09 01:38:44;;;;;;;22.38;9.82;;;;;;;;;;5037698;28;20048;-74
2023/06/09 01:41:10;;;;;;;27.52;10.40;;;;;;;;;;5036246;28;20041;-74
2023/06/09 01:43:36;;;;;;;26.02;10.20;;;;;;;;;;5035777;28;20517;-75
2023/06/09 01:46:02;;;;;;;25.02;10.65;;;;;;;;;;5039442;28;20128;-75
2023/06/09 01:48:47;;;;;;;26.10;9.25;;;;;;;;;;5038930;28;20045;-74
2023/06/09 01:51:20;;;;;;;24.85;9.82;;;;;;;;;;5052425;28;20079;-76
2023/06/09 01:53:52;;;;;;;26.60;10.18;;;;;;;;;;5038596;28;20034;-74
2023/06/09 01:56:25;;;;;;;27.65;10.05;;;;;;;;;;5037905;28;20069;-74
2023/06/09 01:58:54;;;;;;;27.92;11.32;;;;;;;;;;5036784;28;20406;-75
2023/06/09 02:01:22;;;;;;;26.13;10.20;;;;;;;;;;5038839;28;20052;-75
2023/06/09 02:03:51;;;;;;;24.58;11.13;;;;;;;;;;5039752;28;20045;-75
2023/06/09 02:06:19;;;;;;;26.33;10.85;;;;;;;;;;5037205;28;20402;-74
2023/06/09 02:08:45;;;;;;;27.00;11.48;;;;;;;;;;5037094;28;20372;-74
2023/06/09 02:11:11;;;;;;;27.23;11.60;;;;;;;;;;5038365;28;20092;-74
2023/06/09 02:13:38;;;;;;;27.80;11.77;;;;;;;;;;5035926;28;20045;-74
2023/06/09 02:16:04;;;;;;;24.70;11.45;;;;;;;;;;5038355;28;20045;-74
2023/06/09 02:18:32;;;;;;;34.13;11.50;;;;;;;;;;5038267;28;20077;-74
2023/06/09 02:20:58;;;;;;;29.85;11.57;;;;;;;;;;5042539;28;20045;-75
2023/06/09 02:23:24;;;;;;;28.52;11.48;;;;;;;;;;5043306;28;20045;-75
2023/06/09 02:25:51;;;;;;;30.00;11.15;;;;;;;;;;5022437;28;20053;-74
2023/06/09 02:28:17;;;;;;;29.30;11.05;;;;;;;;;;5025464;28;20048;-75
2023/06/09 02:30:44;;;;;;;24.35;10.55;;;;;;;;;;5043210;28;20045;-75
2023/06/09 02:33:14;;;;;;;23.70;9.57;;;;;;;;;;5043245;28;20053;-75
2023/06/09 02:35:40;;;;;;;26.60;11.27;;;;;;;;;;5042110;28;20037;-74
2023/06/09 02:38:06;;;;;;;28.88;12.20;;;;;;;;;;5043108;28;20049;-74
2023/06/09 02:40:32;;;;;;;29.02;10.95;;;;;;;;;;5041674;28;20503;-75
2023/06/09 02:42:59;;;;;;;30.60;11.55;;;;;;;;;;5035613;28;20037;-74
2023/06/09 02:45:25;;;;;;;27.52;11.82;;;;;;;;;;5042887;28;20046;-76
2023/06/09 02:47:51;;;;;;;30.10;12.60;;;;;;;;;;5042934;28;20128;-75
2023/06/09 02:50:17;;;;;;;33.47;11.20;;;;;;;;;;5040593;28;20049;-75
2023/06/09 02:52:44;;;;;;;37.00;11.73;;;;;;;;;;5041736;28;20423;-75
2023/06/09 02:55:11;;;;;;;24.88;11.18;;;;;;;;;;5040798;28;20049;-75
2023/06/09 02:57:37;;;;;;;28.65;11.82;;;;;;;;;;5034341;28;20103;-75
2023/06/09 03:00:04;;;;;;;27.17;11.80;;;;;;;;;;5034154;28;20487;-75
2023/06/09 03:02:30;;;;;;;25.88;10.98;;;;;;;;;;5038712;28;20472;-75
2023/06/09 03:04:56;;;;;;;26.75;11.85;;;;;;;;;;5039703;28;20037;-74
2023/06/09 03:07:23;;;;;;;29.17;11.60;;;;;;;;;;5040901;28;20046;-74
2023/06/09 03:09:49;;;;;;;26.20;11.60;;;;;;;;;;5039620;28;20080;-74
2023/06/09 03:12:15;;;;;;;28.27;12.23;;;;;;;;;;5048472;28;20067;-74
2023/06/09 03:14:42;;;;;;;29.90;12.00;;;;;;;;;;5040609;28;20107;-75
2023/06/09 03:17:08;;;;;;;27.48;11.68;;;;;;;;;;5041026;28;20076;-75
2023/06/09 03:19:34;;;;;;;30.17;12.35;;;;;;;;;;5041808;28;20041;-77
2023/06/09 03:22:03;;;;;;;32.90;12.77;;;;;;;;;;5039851;28;20231;-76
2023/06/09 03:24:29;;;;;;;29.58;12.45;;;;;;;;;;5040092;28;20049;-76
2023/06/09 03:26:55;;;;;;;29.90;12.27;;;;;;;;;;5040088;28;20499;-74
2023/06/09 03:29:24;;;;;;;26.63;12.45;;;;;;;;;;5039026;28;20049;-74
2023/06/09 03:31:50;;;;;;;26.90;13.23;;;;;;;;;;5038403;28;20045;-75
2023/06/09 03:34:16;;;;;;;31.58;12.95;;;;;;;;;;5037006;28;20141;-74
2023/06/09 03:36:42;;;;;;;32.72;12.95;;;;;;;;;;5038634;28;20069;-75
2023/06/09 03:39:08;;;;;;;36.55;13.88;;;;;;;;;;5039844;28;20133;-75
2023/06/09 03:41:34;;;;;;;27.48;12.52;;;;;;;;;;5038775;28;20077;-75
2023/06/09 03:44:00;;;;;;;29.00;12.60;;;;;;;;;;5038410;28;20041;-75
2023/06/09 03:46:26;;;;;;;24.08;12.02;;;;;;;;;;5038246;28;20479;-75
2023/06/09 03:48:53;;;;;;;27.58;12.60;;;;;;;;;;5037368;28;20050;-74
2023/06/09 03:51:20;;;;;;;30.30;13.15;;;;;;;;;;5040312;28;20061;-74
2023/06/09 03:53:46;;;;;;;30.83;12.77;;;;;;;;;;5038678;28;20111;-75
2023/06/09 03:56:12;;;;;;;30.27;11.75;;;;;;;;;;5039814;28;20045;-75
2023/06/09 03:58:38;;;;;;;28.95;12.38;;;;;;;;;;5039013;28;20045;-75
2023/06/09 04:01:04;;;;;;;27.65;12.90;;;;;;;;;;5039416;28;20129;-75
2023/06/09 04:03:30;;;;;;;26.90;12.57;;;;;;;;;;5038084;28;20054;-75
2023/06/09 04:05:56;;;;;;;27.83;12.65;;;;;;;;;;5038394;28;20602;-74
2023/06/09 04:08:22;;;;;;;31.88;13.60;;;;;;;;;;5038611;28;20045;-75
2023/06/09 04:10:48;;;;;;;32.95;12.90;;;;;;;;;;5038559;28;20125;-75
2023/06/09 04:13:14;;;;;;;28.95;12.77;;;;;;;;;;5038171;28;20041;-75
2023/06/09 04:15:40;;;;;;;25.52;13.35;;;;;;;;;;5037735;28;20047;-76
2023/06/09 04:18:06;;;;;;;26.25;12.77;;;;;;;;;;5020268;28;20399;-75
2023/06/09 04:20:34;;;;;;;26.85;11.88;;;;;;;;;;5037824;28;20114;-76
2023/06/09 04:23:01;;;;;;;29.50;13.45;;;;;;;;;;5037990;28;20041;-75
2023/06/09 04:25:27;;;;;;;29.73;12.68;;;;;;;;;;5038679;28;20041;-75
2023/06/09 04:27:53;;;;;;;34.63;13.18;;;;;;;;;;5020973;28;20060;-75
2023/06/09 04:30:25;;;;;;;26.10;11.95;;;;;;;;;;5039438;28;20091;-76
2023/06/09 04:32:54;;;;;;;25.80;12.38;;;;;;;;;;5038009;28;20049;-75
2023/06/09 04:35:23;;;;;;;29.92;12.98;;;;;;;;;;5039549;28;20044;-75
2023/06/09 04:37:50;;;;;;;28.88;12.90;;;;;;;;;;5040548;28;20456;-74
2023/06/09 04:40:21;;;;;;;28.65;12.52;;;;;;;;;;5039169;28;20045;-75
2023/06/09 04:42:50;;;;;;;28.23;12.60;;;;;;;;;;5033642;28;20057;-75
2023/06/09 04:45:17;;;;;;;27.48;12.55;;;;;;;;;;5018700;28;20095;-75
2023/06/09 04:47:43;;;;;;;33.75;13.07;;;;;;;;;;5000329;28;20050;-74
2023/06/09 04:50:10;;;;;;;29.80;12.95;;;;;;;;;;5024009;28;20057;-76
2023/06/09 04:52:39;;;;;;;28.58;13.25;;;;;;;;;;5038623;28;20172;-75
2023/06/09 04:55:06;;;;;;;28.73;13.48;;;;;;;;;;5037025;28;20057;-75
2023/06/09 04:57:32;;;;;;;27.77;12.93;;;;;;;;;;5036812;28;20132;-74
2023/06/09 05:00:12;;;;;;;29.48;12.77;;;;;;;;;;5037320;28;20045;-75
2023/06/09 05:02:39;;;;;;;28.15;13.00;;;;;;;;;;5037992;28;20101;-75
2023/06/09 05:05:07;;;;;;;24.02;12.95;;;;;;;;;;5004759;28;20055;-76
2023/06/09 05:07:35;;;;;;;25.58;12.88;;;;;;;;;;5039477;28;20091;-76
2023/06/09 05:10:01;;;;;;;33.40;13.52;;;;;;;;;;5020063;28;20085;-75
2023/06/09 05:12:27;;;;;;;32.42;13.32;;;;;;;;;;5037742;28;20077;-75
2023/06/09 05:14:53;;;;;;;28.60;13.18;;;;;;;;;;5034904;28;20049;-76
2023/06/09 05:17:19;;;;;;;28.02;13.48;;;;;;;;;;5038101;28;20045;-76
2023/06/09 05:19:45;;;;;;;27.92;12.65;;;;;;;;;;5037412;28;20073;-76
2023/06/09 05:22:12;;;;;;;28.20;13.60;;;;;;;;;;5020055;28;20418;-76
2023/06/09 05:24:38;;;;;;;23.70;13.13;;;;;;;;;;5036651;28;20041;-75
2023/06/09 05:27:05;;;;;;;25.45;13.60;;;;;;;;;;5034483;28;20080;-75
2023/06/09 05:29:31;;;;;;;27.15;13.05;;;;;;;;;;5032753;28;20096;-75
2023/06/09 05:31:57;;;;;;;26.40;12.88;;;;;;;;;;5035326;28;20495;-75
2023/06/09 05:34:23;;;;;;;21.02;12.18;;;;;;;;;;5028088;28;20084;-75
2023/06/09 05:36:49;;;;;;;19.33;11.40;;;;;;;;;;5017283;28;20092;-75
2023/06/09 05:39:15;;;;;;;23.83;11.40;;;;;;;;;;5032404;28;20055;-75
2023/06/09 05:41:41;;;;;;;24.52;10.82;;;;;;;;;;5035348;28;20053;-76
2023/06/09 05:44:07;;;;;;;23.05;11.55;;;;;;;;;;5035049;28;20496;-76
2023/06/09 05:46:38;;;;;;;24.90;10.77;;;;;;;;;;5035483;28;20046;-75
2023/06/09 05:49:04;;;;;;;17.65;10.60;;;;;;;;;;5015772;28;20053;-76
2023/06/09 05:51:30;;;;;;;24.65;11.20;;;;;;;;;;5032324;28;20138;-75
2023/06/09 05:53:56;;;;;;;21.02;10.38;;;;;;;;;;5037375;28;20499;-75
2023/06/09 05:56:23;;;;;;;21.67;10.38;;;;;;;;;;5039406;28;20168;-75
2023/06/09 05:58:50;;;;;;;19.08;9.88;;;;;;;;;;5039272;28;20152;-76
2023/06/09 06:01:16;;;;;;;18.42;9.20;;;;;;;;;;5016408;28;20045;-76
2023/06/09 06:03:42;;;;;;;17.77;9.32;;;;;;;;;;5039317;28;20053;-76
2023/06/09 06:06:10;;;;;;;20.38;9.45;;;;;;;;;;5039460;28;20050;-76
2023/06/09 06:08:36;;;;;;;21.63;10.07;;;;;;;;;;5041332;28;20053;-75
2023/06/09 06:11:02;;;;;;;18.27;9.15;;;;;;;;;;5038922;28;20049;-74
2023/06/09 06:13:28;;;;;;;19.15;9.30;;;;;;;;;;5037417;28;20051;-75
2023/06/09 06:15:54;;;;;;;22.45;9.23;;;;;;;;;;5023093;28;20403;-75
2023/06/09 06:18:21;;;;;;;20.27;10.00;;;;;;;;;;5040564;28;20041;-76
2023/06/09 06:20:47;;;;;;;16.00;8.25;;;;;;;;;;5040380;28;20077;-76
2023/06/09 06:23:14;;;;;;;14.27;8.77;;;;;;;;;;5039925;28;20087;-75
2023/06/09 06:25:41;;;;;;;16.88;8.60;;;;;;;;;;5038065;28;20492;-75
2023/06/09 06:28:07;;;;;;;19.13;9.15;;;;;;;;;;5036122;28;20045;-75
2023/06/09 06:30:33;;;;;;;16.40;8.90;;;;;;;;;;5039858;28;20041;-76
2023/06/09 06:32:59;;;;;;;20.05;9.45;;;;;;;;;;5040502;28;20060;-74
2023/06/09 06:35:26;;;;;;;18.52;8.82;;;;;;;;;;5036127;28;20112;-76
2023/06/09 06:37:52;;;;;;;16.33;8.55;;;;;;;;;;5010513;28;20065;-75
2023/06/09 06:40:18;;;;;;;16.70;9.13;;;;;;;;;;5006804;28;20129;-76
2023/06/09 06:42:44;;;;;;;17.20;8.75;;;;;;;;;;5006087;28;20044;-76
2023/06/09 06:45:11;;;;;;;16.20;8.52;;;;;;;;;;5039645;28;20043;-76
2023/06/09 06:47:37;;;;;;;16.77;9.02;;;;;;;;;;5021984;28;20042;-75
2023/06/09 06:50:04;;;;;;;16.70;8.15;;;;;;;;;;5042855;28;20049;-76
2023/06/09 06:52:31;;;;;;;19.40;8.70;;;;;;;;;;5023697;28;20037;-76
2023/06/09 06:54:58;;;;;;;17.98;8.68;;;;;;;;;;5039817;28;20045;-76
2023/06/09 06:57:24;;;;;;;15.73;7.75;;;;;;;;;;5032912;28;20050;-76
2023/06/09 06:59:50;;;;;;;14.93;7.53;;;;;;;;;;5039188;28;20379;-76
2023/06/09 07:02:17;;;;;;;16.50;7.40;;;;;;;;;;5041680;28;20099;-76
2023/06/09 07:04:43;;;;;;;17.52;7.60;;;;;;;;;;5039954;28;20046;-75
2023/06/09 07:07:09;;;;;;;14.02;7.30;;;;;;;;;;5041075;28;20045;-75
2023/06/09 07:09:35;;;;;;;17.40;7.72;;;;;;;;;;5039699;28;20053;-75
2023/06/09 07:12:01;;;;;;;18.20;7.88;;;;;;;;;;5041624;28;20136;-76
2023/06/09 07:14:29;;;;;;;17.02;7.72;;;;;;;;;;5040710;28;20499;-75
2023/06/09 07:16:55;;;;;;;13.10;7.20;;;;;;;;;;5021073;28;20438;-75
2023/06/09 07:19:21;;;;;;;19.05;7.40;;;;;;;;;;5037219;28;20048;-76
2023/06/09 07:21:47;;;;;;;14.52;6.70;;;;;;;;;;5036608;28;20121;-75
2023/06/09 07:24:13;;;;;;;15.48;7.30;;;;;;;;;;5021836;28;20038;-76
2023/06/09 07:26:40;;;;;;;14.15;6.80;;;;;;;;;;5039918;28;20124;-75
2023/06/09 07:29:06;;;;;;;13.45;6.72;;;;;;;;;;5036583;28;20502;-75
2023/06/09 07:31:32;;;;;;;15.10;6.90;;;;;;;;;;5023829;28;20455;-76
2023/06/09 07:33:58;;;;;;;13.52;7.30;;;;;;;;;;5034920;28;20518;-76
2023/06/09 07:36:24;;;;;;;18.50;7.45;;;;;;;;;;5040339;28;20107;-75
2023/06/09 07:38:50;;;;;;;16.45;7.25;;;;;;;;;;5038595;28;20499;-76
2023/06/09 07:41:16;;;;;;;13.38;6.47;;;;;;;;;;5037387;28;20080;-76
2023/06/09 07:43:44;;;;;;;14.80;6.53;;;;;;;;;;5039122;28;20158;-76
2023/06/09 07:46:11;;;;;;;16.60;6.57;;;;;;;;;;5036024;28;20050;-77
2023/06/09 07:48:38;;;;;;;14.88;6.97;;;;;;;;;;5034905;28;20051;-77
2023/06/09 07:51:04;;;;;;;15.10;6.28;;;;;;;;;;5037538;28;20057;-76
2023/06/09 07:53:31;;;;;;;13.55;5.95;;;;;;;;;;5035865;28;20041;-77
2023/06/09 07:55:57;;;;;;;14.35;5.97;;;;;;;;;;5030015;28;20054;-77
2023/06/09 07:58:23;;;;;;;13.20;5.60;;;;;;;;;;5039219;28;20041;-76
2023/06/09 08:00:51;;;;;;;14.30;5.80;;;;;;;;;;5036640;28;20044;-77
2023/06/09 08:03:18;;;;;;;12.07;6.53;;;;;;;;;;5014499;28;20488;-77
2023/06/09 08:05:44;;;;;;;13.38;5.80;;;;;;;;;;5016932;28;20045;-77
2023/06/09 08:08:10;;;;;;;15.57;5.72;;;;;;;;;;5037727;28;20056;-76
2023/06/09 08:10:36;;;;;;;11.68;5.40;;;;;;;;;;5035811;28;20041;-77
2023/06/09 08:13:02;;;;;;;16.65;5.78;;;;;;;;;;5033134;28;20053;-75
2023/06/09 08:15:28;;;;;;;12.32;5.72;;;;;;;;;;5030306;28;20098;-76
2023/06/09 08:17:55;;;;;;;14.80;5.63;;;;;;;;;;5017244;28;20047;-76
2023/06/09 08:20:21;;;;;;;9.77;4.88;;;;;;;;;;5038963;28;20052;-76
2023/06/09 08:22:47;;;;;;;14.68;5.55;;;;;;;;;;5031178;28;20052;-76
2023/06/09 08:25:13;;;;;;;12.55;5.43;;;;;;;;;;5040293;28;20515;-76
2023/06/09 08:27:39;;;;;;;13.48;5.70;;;;;;;;;;5037444;28;20052;-78
2023/06/09 08:30:07;;;;;;;13.90;5.60;;;;;;;;;;5037029;28;20446;-77
2023/06/09 08:32:33;;;;;;;10.80;5.78;;;;;;;;;;5034100;28;20076;-77
2023/06/09 08:35:03;;;;;;;12.38;4.95;;;;;;;;;;5022794;28;20101;-76
2023/06/09 08:37:30;;;;;;;12.05;5.38;;;;;;;;;;5040560;28;20132;-76
2023/06/09 08:39:57;;;;;;;11.60;5.30;;;;;;;;;;5039136;28;20559;-76
2023/06/09 08:42:25;;;;;;;11.35;5.03;;;;;;;;;;5040219;28;20045;-76
2023/06/09 08:44:59;;;;;;;10.32;4.78;;;;;;;;;;5036711;28;20056;-76
2023/06/09 08:47:25;;;;;;;11.57;4.75;;;;;;;;;;5039603;28;20037;-76
2023/06/09 08:49:57;;;;;;;13.15;5.00;;;;;;;;;;5037085;28;20108;-77
2023/06/09 08:52:23;;;;;;;12.75;5.25;;;;;;;;;;5040114;28;20049;-76
2023/06/09 08:54:50;;;;;;;10.70;5.07;;;;;;;;;;5039469;28;20045;-75
2023/06/09 08:57:16;;;;;;;11.35;5.10;;;;;;;;;;5040588;28;20093;-75
2023/06/09 08:59:44;;;;;;;13.52;5.10;;;;;;;;;;5039765;28;20049;-77
2023/06/09 09:02:11;;;;;;;12.05;5.28;;;;;;;;;;5041590;28;20050;-76
2023/06/09 09:04:38;;;;;;;10.23;4.80;;;;;;;;;;5039380;28;20107;-77
2023/06/09 09:07:08;;;;;;;11.80;5.07;;;;;;;;;;5038480;28;20197;-75
2023/06/09 09:09:35;;;;;;;10.55;4.82;;;;;;;;;;5037903;28;20092;-75
2023/06/09 09:12:05;;;;;;;12.05;5.07;;;;;;;;;;5039047;28;20053;-76
2023/06/09 09:14:31;;;;;;;12.02;5.40;;;;;;;;;;5040993;28;20124;-75
2023/06/09 09:16:58;;;;;;;11.15;5.18;;;;;;;;;;5037631;28;20045;-77
2023/06/09 09:19:26;;;;;;;9.98;5.00;;;;;;;;;;5033562;28;20041;-76
2023/06/09 09:21:53;;;;;;;10.38;5.28;;;;;;;;;;5037011;28;20045;-77
2023/06/09 09:24:19;;;;;;;10.07;4.88;;;;;;;;;;5040121;28;20637;-76
2023/06/09 09:26:45;;;;;;;9.40;4.97;;;;;;;;;;5040358;28;20060;-76
2023/06/09 09:29:11;;;;;;;10.60;4.93;;;;;;;;;;5039838;28;20511;-76
2023/06/09 09:31:41;;;;;;;12.68;5.15;;;;;;;;;;5037936;28;20092;-76
2023/06/09 09:34:14;;;;;;;11.07;5.13;;;;;;;;;;5037688;28;20065;-76
2023/06/09 09:36:43;;;;;;;10.20;5.07;;;;;;;;;;5042776;28;20046;-75
2023/06/09 09:39:10;;;;;;;7.38;4.25;;;;;;;;;;5042034;28;20045;-76
2023/06/09 09:41:36;;;;;;;10.50;4.90;;;;;;;;;;5039940;28;20064;-76
2023/06/09 09:44:02;;;;;;;11.50;4.68;;;;;;;;;;5033161;28;20059;-76
2023/06/09 09:46:35;;;;;;;10.48;4.88;;;;;;;;;;5043165;28;20058;-75
2023/06/09 09:49:01;;;;;;;10.65;4.43;;;;;;;;;;5040969;28;20041;-75
2023/06/09 09:51:28;;;;;;;9.80;4.35;;;;;;;;;;5042783;28;20438;-75
2023/06/09 09:53:58;;;;;;;9.52;4.60;;;;;;;;;;5042234;28;20103;-75
2023/06/09 09:56:25;;;;;;;10.13;5.00;;;;;;;;;;5033312;28;20073;-76
2023/06/09 09:58:53;;;;;;;8.30;4.28;;;;;;;;;;5031310;28;20072;-75
2023/06/09 10:01:23;;;;;;;10.52;4.63;;;;;;;;;;5032833;28;20080;-76
2023/06/09 10:03:49;;;;;;;8.70;4.35;;;;;;;;;;5039419;28;20042;-74
2023/06/09 10:06:16;;;;;;;10.10;4.47;;;;;;;;;;5034213;28;20053;-75
2023/06/09 10:08:43;;;;;;;10.10;4.35;;;;;;;;;;5031122;28;20503;-76
2023/06/09 10:11:09;;;;;;;13.70;4.63;;;;;;;;;;5017681;28;20123;-75
2023/06/09 10:13:35;;;;;;;10.07;5.00;;;;;;;;;;5032112;28;20045;-75
2023/06/09 10:16:01;;;;;;;8.45;4.43;;;;;;;;;;4999624;28;20096;-76
2023/06/09 10:18:27;;;;;;;10.60;4.75;;;;;;;;;;5031072;28;20038;-76
2023/06/09 10:20:54;;;;;;;8.95;4.20;;;;;;;;;;5037155;28;20045;-76
2023/06/09 10:23:21;;;;;;;10.07;4.30;;;;;;;;;;5034304;28;20042;-77
2023/06/09 10:25:48;;;;;;;9.88;4.53;;;;;;;;;;5026934;28;20101;-73
2023/06/09 10:28:17;;;;;;;9.25;4.50;;;;;;;;;;5033009;28;20045;-76
2023/06/09 10:30:44;;;;;;;10.25;4.45;;;;;;;;;;5042127;28;20176;-74
2023/06/09 10:33:26;;;;;;;10.70;4.43;;;;;;;;;;5043038;28;20099;-74
2023/06/09 10:35:56;;;;;;;9.13;4.78;;;;;;;;;;5024867;28;20048;-75
2023/06/09 10:38:29;;;;;;;9.23;4.45;;;;;;;;;;5022350;28;20053;-75
2023/06/09 10:40:58;;;;;;;9.77;4.53;;;;;;;;;;5041993;28;20451;-76
2023/06/09 10:43:27;;;;;;;9.43;4.97;;;;;;;;;;5029559;28;20472;-75
2023/06/09 10:45:57;;;;;;;9.13;4.65;;;;;;;;;;5019268;28;20103;-76
2023/06/09 10:48:42;;;;;;;10.67;4.70;;;;;;;;;;5035095;28;20088;-76
2023/06/09 10:51:26;;;;;;;8.30;4.30;;;;;;;;;;5026405;28;20037;-74
2023/06/09 10:54:09;;;;;;;9.98;4.68;;;;;;;;;;5027056;28;20077;-75
2023/06/09 10:56:36;;;;;;;8.50;4.57;;;;;;;;;;5041289;28;20045;-74
2023/06/09 10:59:05;;;;;;;10.30;4.60;;;;;;;;;;5039531;28;20038;-74
2023/06/09 11:01:34;;;;;;;8.65;4.47;;;;;;;;;;5040814;28;20041;-75
2023/06/09 11:04:01;;;;;;;10.30;5.15;;;;;;;;;;5039145;28;20049;-75
2023/06/09 11:06:27;;;;;;;8.63;4.93;;;;;;;;;;5040279;28;20048;-76
2023/06/09 11:09:08;;;;;;;13.80;5.03;;;;;;;;;;5040410;28;20107;-75
2023/06/09 11:11:51;;;;;;;8.90;4.60;;;;;;;;;;5042418;28;20037;-75
2023/06/09 11:14:36;;;;;;;14.23;4.80;;;;;;;;;;5040025;28;20049;-75
2023/06/09 11:17:25;;;;;;;9.57;4.60;;;;;;;;;;5040011;28;20514;-75
2023/06/09 11:19:51;;;;;;;8.80;4.65;;;;;;;;;;5040669;28;20065;-74
2023/06/09 11:22:18;;;;;;;11.63;5.43;;;;;;;;;;5042387;28;20041;-74
2023/06/09 11:24:47;;;;;;;9.95;4.95;;;;;;;;;;5040119;28;20050;-74
2023/06/09 11:27:17;;;;;;;8.10;4.60;;;;;;;;;;5039701;28;20382;-74
2023/06/09 11:29:43;;;;;;;8.15;4.25;;;;;;;;;;5038438;28;20476;-74
2023/06/09 11:32:10;;;;;;;9.90;5.18;;;;;;;;;;5041080;28;20045;-75
2023/06/09 11:34:55;;;;;;;9.30;4.57;;;;;;;;;;5040048;28;20046;-74
2023/06/09 11:37:21;;;;;;;11.27;4.57;;;;;;;;;;5039429;28;20053;-74
2023/06/09 11:39:48;;;;;;;12.50;5.25;;;;;;;;;;5040872;28;20115;-74
2023/06/09 11:42:14;;;;;;;9.05;4.68;;;;;;;;;;5036425;28;20045;-74
2023/06/09 11:44:40;;;;;;;10.77;4.60;;;;;;;;;;5038889;28;20124;-75
2023/06/09 11:47:25;;;;;;;11.30;4.72;;;;;;;;;;5036180;28;20048;-74
2023/06/09 11:50:01;;;;;;;8.85;4.78;;;;;;;;;;5030944;28;20045;-75
2023/06/09 11:52:27;;;;;;;10.10;4.45;;;;;;;;;;5035616;28;20038;-74
2023/06/09 11:54:54;;;;;;;10.68;4.53;;;;;;;;;;5039602;28;20076;-73
2023/06/09 11:57:20;;;;;;;8.15;4.72;;;;;;;;;;5020898;28;20073;-73
2023/06/09 11:59:46;;;;;;;10.60;4.72;;;;;;;;;;5016844;28;20049;-73
2023/06/09 12:02:13;;;;;;;9.75;4.85;;;;;;;;;;5037157;28;20090;-74
2023/06/09 12:04:40;;;;;;;10.30;4.88;;;;;;;;;;5021520;28;20092;-74
2023/06/09 12:07:07;;;;;;;8.48;4.50;;;;;;;;;;5036198;28;20053;-74
2023/06/09 12:09:33;;;;;;;9.18;4.68;;;;;;;;;;5033922;28;20515;-74
2023/06/09 12:11:59;;;;;;;13.10;5.15;;;;;;;;;;5028334;28;20060;-73
2023/06/09 12:14:52;;;;;;;9.60;4.60;;;;;;;;;;5142730;27;21196;-73
2023/06/09 12:17:18;;;;;;;9.73;5.05;;;;;;;;;;5109442;28;20051;-73
2023/06/09 12:19:47;;;;;;;10.30;4.53;;;;;;;;;;5124596;28;20561;-75
2023/06/09 12:22:13;;;;;;;9.98;4.50;;;;;;;;;;5120812;28;20050;-74
2023/06/09 12:24:44;;;;;;;8.88;4.80;;;;;;;;;;5121216;28;20047;-74
2023/06/09 12:27:11;;;;;;;8.02;4.32;;;;;;;;;;5109488;28;20051;-74
2023/06/09 12:29:37;;;;;;;8.77;4.55;;;;;;;;;;5114316;28;20039;-73
2023/06/09 12:32:04;;;;;;;7.65;4.47;;;;;;;;;;5132304;28;20045;-73
2023/06/09 12:34:30;;;;;;;9.93;4.65;;;;;;;;;;5083836;28;20035;-73
2023/06/09 12:36:56;;;;;;;9.60;4.78;;;;;;;;;;5089695;28;20044;-74
2023/06/09 12:39:24;;;;;;;9.85;4.38;;;;;;;;;;5098786;28;20039;-74
2023/06/09 12:41:50;;;;;;;10.75;4.28;;;;;;;;;;5134041;28;20043;-73
2023/06/09 12:44:23;;;;;;;7.20;4.45;;;;;;;;;;5108190;28;20439;-74
2023/06/09 12:46:54;;;;;;;8.90;4.50;;;;;;;;;;5133889;28;20039;-74
2023/06/09 12:49:31;;;;;;;9.70;4.43;;;;;;;;;;5132547;28;20522;-75
2023/06/09 12:51:58;;;;;;;11.00;4.72;;;;;;;;;;5128961;28;20047;-75
2023/06/09 12:54:25;;;;;;;10.85;4.53;;;;;;;;;;5130715;28;20404;-74
2023/06/09 12:56:51;;;;;;;9.55;4.60;;;;;;;;;;5131814;28;20043;-74
2023/06/09 12:59:19;;;;;;;8.75;4.70;;;;;;;;;;5130647;28;20042;-74
2023/06/09 13:01:47;;;;;;;8.00;4.63;;;;;;;;;;5124128;28;20464;-74
2023/06/09 13:04:14;;;;;;;11.60;4.85;;;;;;;;;;5120721;28;20123;-74
2023/06/09 13:06:40;;;;;;;8.73;4.50;;;;;;;;;;5133997;28;20044;-74
2023/06/09 13:09:06;;;;;;;10.00;4.82;;;;;;;;;;5117571;28;20130;-75
2023/06/09 13:11:33;;;;;;;13.18;5.00;;;;;;;;;;5128227;28;20952;-75
2023/06/09 13:13:59;;;;;;;9.45;4.47;;;;;;;;;;5121392;28;20047;-74
2023/06/09 13:16:25;;;;;;;10.10;4.68;;;;;;;;;;5133139;28;20203;-74
2023/06/09 13:18:51;;;;;;;9.88;4.53;;;;;;;;;;5130510;28;20054;-73
2023/06/09 13:21:17;;;;;;;8.38;4.45;;;;;;;;;;5124799;28;20051;-75
2023/06/09 13:23:43;;;;;;;12.98;4.75;;;;;;;;;;5123977;28;20104;-75
2023/06/09 13:26:11;;;;;;;8.48;4.75;;;;;;;;;;5121163;28;20126;-74
2023/06/09 13:28:37;;;;;;;8.80;4.50;;;;;;;;;;5119893;28;20056;-75
2023/06/09 13:31:03;;;;;;;8.60;4.30;;;;;;;;;;5118753;28;20043;-73
2023/06/09 13:33:29;;;;;;;9.75;4.57;;;;;;;;;;5120294;28;20043;-76
2023/06/09 13:35:56;;;;;;;8.52;4.50;;;;;;;;;;5112386;28;20035;-75
2023/06/09 13:38:22;;;;;;;9.60;4.32;;;;;;;;;;5113007;28;20085;-74
2023/06/09 13:40:49;;;;;;;8.10;5.00;;;;;;;;;;5093493;28;20075;-74
2023/06/09 13:43:16;;;;;;;7.15;4.47;;;;;;;;;;5088347;28;20043;-75
2023/06/09 13:45:42;;;;;;;8.88;4.38;;;;;;;;;;5120111;28;20050;-74
2023/06/09 13:48:09;;;;;;;12.98;4.97;;;;;;;;;;5110547;28;20044;-74
2023/06/09 13:50:36;;;;;;;9.65;4.82;;;;;;;;;;5115090;28;20047;-74
2023/06/09 13:53:02;;;;;;;9.95;4.97;;;;;;;;;;5117721;28;20104;-74
2023/06/09 13:55:29;;;;;;;9.73;4.95;;;;;;;;;;5119716;28;20043;-73
2023/06/09 13:57:55;;;;;;;8.43;5.00;;;;;;;;;;5113298;28;20092;-73
2023/06/09 14:00:21;;;;;;;9.68;4.82;;;;;;;;;;5117618;28;20044;-73
2023/06/09 14:02:47;;;;;;;12.40;5.05;;;;;;;;;;5116924;28;20062;-72
2023/06/09 14:05:14;;;;;;;12.25;4.82;;;;;;;;;;5087508;28;20046;-72
2023/06/09 14:07:41;;;;;;;8.23;4.50;;;;;;;;;;5103868;28;20051;-74
2023/06/09 14:10:08;;;;;;;7.63;4.72;;;;;;;;;;5101372;28;20044;-73
2023/06/09 14:12:34;;;;;;;8.65;5.07;;;;;;;;;;5107132;28;20100;-75
2023/06/09 14:15:00;;;;;;;7.70;4.57;;;;;;;;;;5105996;28;20401;-74
2023/06/09 14:17:27;;;;;;;7.95;4.55;;;;;;;;;;5110818;28;20054;-74
2023/06/09 14:19:55;;;;;;;8.73;4.85;;;;;;;;;;5086623;28;20032;-73
2023/06/09 14:22:22;;;;;;;9.50;5.15;;;;;;;;;;5086962;28;20181;-74
2023/06/09 14:24:48;;;;;;;10.32;4.95;;;;;;;;;;5107343;28;20048;-73
2023/06/09 14:27:15;;;;;;;8.13;4.82;;;;;;;;;;5105742;28;20105;-74
2023/06/09 14:29:41;;;;;;;8.45;5.10;;;;;;;;;;5101626;28;20048;-74
2023/06/09 14:32:07;;;;;;;7.65;4.85;;;;;;;;;;5107744;28;20074;-73